sensor_id;sensor_type;location;lat;lon;timestamp;P1;durP1;ratioP1;P2;durP2;ratioP2
77040;SDS011;65974;42.664;23.264;2023-03-01T00:01:18;5.10;;;2.83;;
77040;SDS011;65974;42.664;23.264;2023-03-01T00:03:45;7.88;;;3.53;;
77040;SDS011;65974;42.664;23.264;2023-03-01T00:06:11;12.18;;;6.47;;
77040;SDS011;65974;42.664;23.264;2023-03-01T00:08:37;7.38;;;4.32;;
77040;SDS011;65974;42.664;23.264;2023-03-01T00:11:04;8.20;;;5.50;;
77040;SDS011;65974;42.664;23.264;2023-03-01T00:13:38;6.13;;;3.83;;
77040;SDS011;65974;42.664;23.264;2023-03-01T00:16:05;5.05;;;3.38;;
77040;SDS011;65974;42.664;23.264;2023-03-01T00:18:31;6.78;;;3.80;;
77040;SDS011;65974;42.664;23.264;2023-03-01T00:20:57;7.53;;;3.85;;
77040;SDS011;65974;42.664;23.264;2023-03-01T00:23:23;7.88;;;4.13;;
77040;SDS011;65974;42.664;23.264;2023-03-01T00:25:49;3.15;;;2.70;;
77040;SDS011;65974;42.664;23.264;2023-03-01T00:28:15;7.60;;;3.65;;
77040;SDS011;65974;42.664;23.264;2023-03-01T00:30:41;4.78;;;3.28;;
77040;SDS011;65974;42.664;23.264;2023-03-01T00:33:06;4.95;;;2.60;;
77040;SDS011;65974;42.664;23.264;2023-03-01T00:35:32;4.68;;;4.00;;
77040;SDS011;65974;42.664;23.264;2023-03-01T00:37:58;6.10;;;3.75;;
77040;SDS011;65974;42.664;23.264;2023-03-01T00:40:24;4.45;;;3.15;;
77040;SDS011;65974;42.664;23.264;2023-03-01T00:42:50;3.45;;;2.90;;
77040;SDS011;65974;42.664;23.264;2023-03-01T00:45:15;4.55;;;3.00;;
77040;SDS011;65974;42.664;23.264;2023-03-01T00:47:41;3.13;;;2.10;;
77040;SDS011;65974;42.664;23.264;2023-03-01T00:50:06;5.60;;;2.85;;
77040;SDS011;65974;42.664;23.264;2023-03-01T00:52:34;4.15;;;2.95;;
77040;SDS011;65974;42.664;23.264;2023-03-01T00:54:59;5.85;;;2.80;;
77040;SDS011;65974;42.664;23.264;2023-03-01T00:57:24;6.22;;;3.25;;
77040;SDS011;65974;42.664;23.264;2023-03-01T00:59:50;6.00;;;3.70;;
77040;SDS011;65974;42.664;23.264;2023-03-01T01:02:17;4.20;;;3.03;;
77040;SDS011;65974;42.664;23.264;2023-03-01T01:04:43;4.28;;;2.67;;
77040;SDS011;65974;42.664;23.264;2023-03-01T01:07:09;4.05;;;2.83;;
77040;SDS011;65974;42.664;23.264;2023-03-01T01:09:34;4.10;;;3.05;;
77040;SDS011;65974;42.664;23.264;2023-03-01T01:12:00;2.40;;;1.42;;
77040;SDS011;65974;42.664;23.264;2023-03-01T01:14:26;3.17;;;2.05;;
77040;SDS011;65974;42.664;23.264;2023-03-01T01:16:51;5.28;;;2.90;;
77040;SDS011;65974;42.664;23.264;2023-03-01T01:19:17;4.13;;;2.67;;
77040;SDS011;65974;42.664;23.264;2023-03-01T01:21:43;5.90;;;2.95;;
77040;SDS011;65974;42.664;23.264;2023-03-01T01:24:08;4.00;;;2.13;;
77040;SDS011;65974;42.664;23.264;2023-03-01T01:26:34;4.38;;;3.03;;
77040;SDS011;65974;42.664;23.264;2023-03-01T01:29:02;3.70;;;2.28;;
77040;SDS011;65974;42.664;23.264;2023-03-01T01:31:29;4.45;;;2.58;;
77040;SDS011;65974;42.664;23.264;2023-03-01T01:33:55;3.88;;;2.33;;
77040;SDS011;65974;42.664;23.264;2023-03-01T01:36:22;3.70;;;2.38;;
77040;SDS011;65974;42.664;23.264;2023-03-01T01:38:48;4.22;;;1.83;;
77040;SDS011;65974;42.664;23.264;2023-03-01T01:41:14;2.22;;;1.63;;
77040;SDS011;65974;42.664;23.264;2023-03-01T01:43:41;1.15;;;0.90;;
77040;SDS011;65974;42.664;23.264;2023-03-01T01:48:53;4.90;;;1.98;;
77040;SDS011;65974;42.664;23.264;2023-03-01T01:51:32;3.10;;;2.50;;
77040;SDS011;65974;42.664;23.264;2023-03-01T01:54:03;3.17;;;1.70;;
77040;SDS011;65974;42.664;23.264;2023-03-01T01:56:33;3.28;;;1.95;;
77040;SDS011;65974;42.664;23.264;2023-03-01T01:59:00;2.60;;;1.40;;
77040;SDS011;65974;42.664;23.264;2023-03-01T02:01:27;2.40;;;1.63;;
77040;SDS011;65974;42.664;23.264;2023-03-01T02:03:52;4.05;;;2.58;;
77040;SDS011;65974;42.664;23.264;2023-03-01T02:06:37;3.25;;;2.40;;
77040;SDS011;65974;42.664;23.264;2023-03-01T02:09:11;2.20;;;1.33;;
77040;SDS011;65974;42.664;23.264;2023-03-01T02:11:40;2.67;;;2.03;;
77040;SDS011;65974;42.664;23.264;2023-03-01T02:14:06;3.65;;;2.25;;
77040;SDS011;65974;42.664;23.264;2023-03-01T02:16:31;2.72;;;2.38;;
77040;SDS011;65974;42.664;23.264;2023-03-01T02:18:57;4.68;;;3.20;;
77040;SDS011;65974;42.664;23.264;2023-03-01T02:24:15;1.80;;;1.13;;
77040;SDS011;65974;42.664;23.264;2023-03-01T02:26:50;1.92;;;1.33;;
77040;SDS011;65974;42.664;23.264;2023-03-01T02:29:19;2.47;;;2.13;;
77040;SDS011;65974;42.664;23.264;2023-03-01T02:31:46;2.95;;;2.13;;
77040;SDS011;65974;42.664;23.264;2023-03-01T02:34:13;2.58;;;1.85;;
77040;SDS011;65974;42.664;23.264;2023-03-01T02:36:42;7.68;;;3.50;;
77040;SDS011;65974;42.664;23.264;2023-03-01T02:39:11;8.20;;;3.95;;
77040;SDS011;65974;42.664;23.264;2023-03-01T02:41:42;8.13;;;4.32;;
77040;SDS011;65974;42.664;23.264;2023-03-01T02:44:12;16.63;;;6.05;;
77040;SDS011;65974;42.664;23.264;2023-03-01T02:46:42;10.43;;;4.88;;
77040;SDS011;65974;42.664;23.264;2023-03-01T02:49:19;7.82;;;4.30;;
77040;SDS011;65974;42.664;23.264;2023-03-01T02:51:48;10.35;;;4.03;;
77040;SDS011;65974;42.664;23.264;2023-03-01T02:54:31;5.28;;;3.25;;
77040;SDS011;65974;42.664;23.264;2023-03-01T02:57:01;3.42;;;2.17;;
77040;SDS011;65974;42.664;23.264;2023-03-01T02:59:29;5.45;;;3.47;;
77040;SDS011;65974;42.664;23.264;2023-03-01T03:01:59;4.75;;;3.03;;
77040;SDS011;65974;42.664;23.264;2023-03-01T03:04:25;4.95;;;3.25;;
77040;SDS011;65974;42.664;23.264;2023-03-01T03:06:51;3.88;;;2.72;;
77040;SDS011;65974;42.664;23.264;2023-03-01T03:09:16;6.65;;;3.10;;
77040;SDS011;65974;42.664;23.264;2023-03-01T03:11:42;8.55;;;2.67;;
77040;SDS011;65974;42.664;23.264;2023-03-01T03:14:09;8.65;;;4.20;;
77040;SDS011;65974;42.664;23.264;2023-03-01T03:16:42;6.15;;;2.85;;
77040;SDS011;65974;42.664;23.264;2023-03-01T03:19:10;8.52;;;5.30;;
77040;SDS011;65974;42.664;23.264;2023-03-01T03:21:36;5.95;;;3.95;;
77040;SDS011;65974;42.664;23.264;2023-03-01T03:24:01;7.00;;;3.80;;
77040;SDS011;65974;42.664;23.264;2023-03-01T03:26:28;10.82;;;3.28;;
77040;SDS011;65974;42.664;23.264;2023-03-01T03:28:54;7.30;;;4.45;;
77040;SDS011;65974;42.664;23.264;2023-03-01T03:31:19;9.23;;;4.82;;
77040;SDS011;65974;42.664;23.264;2023-03-01T03:33:45;5.15;;;3.53;;
77040;SDS011;65974;42.664;23.264;2023-03-01T03:36:14;7.22;;;5.18;;
77040;SDS011;65974;42.664;23.264;2023-03-01T03:38:42;5.38;;;3.78;;
77040;SDS011;65974;42.664;23.264;2023-03-01T03:41:09;5.70;;;4.10;;
77040;SDS011;65974;42.664;23.264;2023-03-01T03:46:37;5.07;;;3.15;;
77040;SDS011;65974;42.664;23.264;2023-03-01T03:49:02;5.63;;;3.35;;
77040;SDS011;65974;42.664;23.264;2023-03-01T03:51:28;5.20;;;2.92;;
77040;SDS011;65974;42.664;23.264;2023-03-01T03:53:53;3.90;;;3.20;;
77040;SDS011;65974;42.664;23.264;2023-03-01T03:56:18;5.43;;;3.75;;
77040;SDS011;65974;42.664;23.264;2023-03-01T03:58:44;5.05;;;3.20;;
77040;SDS011;65974;42.664;23.264;2023-03-01T04:01:09;5.18;;;3.28;;
77040;SDS011;65974;42.664;23.264;2023-03-01T04:03:35;5.18;;;3.45;;
77040;SDS011;65974;42.664;23.264;2023-03-01T04:06:00;4.88;;;3.47;;
77040;SDS011;65974;42.664;23.264;2023-03-01T04:08:27;6.40;;;3.13;;
77040;SDS011;65974;42.664;23.264;2023-03-01T04:10:57;4.68;;;2.97;;
77040;SDS011;65974;42.664;23.264;2023-03-01T04:13:45;3.55;;;2.42;;
77040;SDS011;65974;42.664;23.264;2023-03-01T04:16:11;3.95;;;2.83;;
77040;SDS011;65974;42.664;23.264;2023-03-01T04:18:36;3.60;;;2.38;;
77040;SDS011;65974;42.664;23.264;2023-03-01T04:21:01;3.80;;;2.72;;
77040;SDS011;65974;42.664;23.264;2023-03-01T04:23:27;4.20;;;2.47;;
77040;SDS011;65974;42.664;23.264;2023-03-01T04:25:53;5.18;;;3.08;;
77040;SDS011;65974;42.664;23.264;2023-03-01T04:28:25;3.85;;;2.42;;
77040;SDS011;65974;42.664;23.264;2023-03-01T04:30:53;4.35;;;2.72;;
77040;SDS011;65974;42.664;23.264;2023-03-01T04:33:19;4.25;;;3.13;;
77040;SDS011;65974;42.664;23.264;2023-03-01T04:35:45;5.45;;;3.22;;
77040;SDS011;65974;42.664;23.264;2023-03-01T04:38:10;4.50;;;2.65;;
77040;SDS011;65974;42.664;23.264;2023-03-01T04:40:36;7.28;;;3.33;;
77040;SDS011;65974;42.664;23.264;2023-03-01T04:43:02;6.20;;;3.65;;
77040;SDS011;65974;42.664;23.264;2023-03-01T04:45:28;5.57;;;3.30;;
77040;SDS011;65974;42.664;23.264;2023-03-01T04:47:54;4.03;;;2.63;;
77040;SDS011;65974;42.664;23.264;2023-03-01T04:50:19;5.03;;;3.20;;
77040;SDS011;65974;42.664;23.264;2023-03-01T04:52:45;5.00;;;3.45;;
77040;SDS011;65974;42.664;23.264;2023-03-01T04:55:12;5.05;;;3.35;;
77040;SDS011;65974;42.664;23.264;2023-03-01T04:57:38;5.18;;;3.55;;
77040;SDS011;65974;42.664;23.264;2023-03-01T05:00:04;4.88;;;2.97;;
77040;SDS011;65974;42.664;23.264;2023-03-01T05:02:45;5.28;;;3.40;;
77040;SDS011;65974;42.664;23.264;2023-03-01T05:07:38;4.00;;;2.20;;
77040;SDS011;65974;42.664;23.264;2023-03-01T05:10:04;4.35;;;2.75;;
77040;SDS011;65974;42.664;23.264;2023-03-01T05:12:29;4.07;;;2.90;;
77040;SDS011;65974;42.664;23.264;2023-03-01T05:14:55;4.22;;;2.65;;
77040;SDS011;65974;42.664;23.264;2023-03-01T05:17:20;5.22;;;2.95;;
77040;SDS011;65974;42.664;23.264;2023-03-01T05:19:45;4.18;;;2.85;;
77040;SDS011;65974;42.664;23.264;2023-03-01T05:22:11;4.97;;;3.08;;
77040;SDS011;65974;42.664;23.264;2023-03-01T05:24:37;5.82;;;3.42;;
77040;SDS011;65974;42.664;23.264;2023-03-01T05:27:03;5.05;;;2.65;;
77040;SDS011;65974;42.664;23.264;2023-03-01T05:29:30;4.22;;;2.53;;
77040;SDS011;65974;42.664;23.264;2023-03-01T05:32:00;3.88;;;2.42;;
77040;SDS011;65974;42.664;23.264;2023-03-01T05:36:59;4.88;;;2.42;;
77040;SDS011;65974;42.664;23.264;2023-03-01T05:39:26;5.97;;;2.67;;
77040;SDS011;65974;42.664;23.264;2023-03-01T05:41:53;5.07;;;3.10;;
77040;SDS011;65974;42.664;23.264;2023-03-01T05:44:20;4.85;;;3.33;;
77040;SDS011;65974;42.664;23.264;2023-03-01T05:46:45;3.65;;;2.22;;
77040;SDS011;65974;42.664;23.264;2023-03-01T05:49:11;6.68;;;3.58;;
77040;SDS011;65974;42.664;23.264;2023-03-01T05:51:38;3.58;;;1.85;;
77040;SDS011;65974;42.664;23.264;2023-03-01T05:54:04;5.63;;;2.97;;
77040;SDS011;65974;42.664;23.264;2023-03-01T05:56:32;3.88;;;2.50;;
77040;SDS011;65974;42.664;23.264;2023-03-01T05:58:59;3.90;;;2.40;;
77040;SDS011;65974;42.664;23.264;2023-03-01T06:01:25;2.17;;;1.80;;
77040;SDS011;65974;42.664;23.264;2023-03-01T06:03:50;3.65;;;2.30;;
77040;SDS011;65974;42.664;23.264;2023-03-01T06:06:16;5.03;;;2.30;;
77040;SDS011;65974;42.664;23.264;2023-03-01T06:08:41;3.47;;;1.60;;
77040;SDS011;65974;42.664;23.264;2023-03-01T06:11:07;3.88;;;2.30;;
77040;SDS011;65974;42.664;23.264;2023-03-01T06:13:32;3.63;;;2.20;;
77040;SDS011;65974;42.664;23.264;2023-03-01T06:15:58;3.95;;;2.08;;
77040;SDS011;65974;42.664;23.264;2023-03-01T06:18:23;2.83;;;2.05;;
77040;SDS011;65974;42.664;23.264;2023-03-01T06:20:52;3.47;;;2.30;;
77040;SDS011;65974;42.664;23.264;2023-03-01T06:23:18;3.65;;;2.08;;
77040;SDS011;65974;42.664;23.264;2023-03-01T06:25:44;2.88;;;1.70;;
77040;SDS011;65974;42.664;23.264;2023-03-01T06:28:09;2.92;;;1.85;;
77040;SDS011;65974;42.664;23.264;2023-03-01T06:30:34;3.38;;;2.08;;
77040;SDS011;65974;42.664;23.264;2023-03-01T06:33:00;3.42;;;2.20;;
77040;SDS011;65974;42.664;23.264;2023-03-01T06:35:26;3.85;;;2.25;;
77040;SDS011;65974;42.664;23.264;2023-03-01T06:37:54;2.33;;;2.10;;
77040;SDS011;65974;42.664;23.264;2023-03-01T06:40:20;8.02;;;3.60;;
77040;SDS011;65974;42.664;23.264;2023-03-01T06:42:49;3.90;;;2.58;;
77040;SDS011;65974;42.664;23.264;2023-03-01T06:45:16;3.88;;;2.60;;
77040;SDS011;65974;42.664;23.264;2023-03-01T06:47:43;3.40;;;2.53;;
77040;SDS011;65974;42.664;23.264;2023-03-01T06:50:08;5.63;;;3.65;;
77040;SDS011;65974;42.664;23.264;2023-03-01T06:52:34;2.67;;;2.08;;
77040;SDS011;65974;42.664;23.264;2023-03-01T06:55:00;4.20;;;2.90;;
77040;SDS011;65974;42.664;23.264;2023-03-01T06:57:26;3.90;;;2.35;;
77040;SDS011;65974;42.664;23.264;2023-03-01T06:59:52;5.35;;;2.88;;
77040;SDS011;65974;42.664;23.264;2023-03-01T07:02:18;5.78;;;2.13;;
77040;SDS011;65974;42.664;23.264;2023-03-01T07:04:43;3.20;;;1.63;;
77040;SDS011;65974;42.664;23.264;2023-03-01T07:07:09;4.00;;;2.55;;
77040;SDS011;65974;42.664;23.264;2023-03-01T07:09:35;3.40;;;2.13;;
77040;SDS011;65974;42.664;23.264;2023-03-01T07:12:00;6.55;;;3.67;;
77040;SDS011;65974;42.664;23.264;2023-03-01T07:14:26;3.67;;;2.78;;
77040;SDS011;65974;42.664;23.264;2023-03-01T07:16:52;5.05;;;2.65;;
77040;SDS011;65974;42.664;23.264;2023-03-01T07:19:18;5.07;;;2.10;;
77040;SDS011;65974;42.664;23.264;2023-03-01T07:21:44;1.67;;;1.27;;
77040;SDS011;65974;42.664;23.264;2023-03-01T07:24:09;4.45;;;2.22;;
77040;SDS011;65974;42.664;23.264;2023-03-01T07:26:35;4.72;;;1.70;;
77040;SDS011;65974;42.664;23.264;2023-03-01T07:29:02;5.00;;;3.22;;
77040;SDS011;65974;42.664;23.264;2023-03-01T07:31:29;5.78;;;3.17;;
77040;SDS011;65974;42.664;23.264;2023-03-01T07:33:54;3.22;;;2.10;;
77040;SDS011;65974;42.664;23.264;2023-03-01T07:36:20;4.32;;;2.45;;
77040;SDS011;65974;42.664;23.264;2023-03-01T07:38:46;3.38;;;2.35;;
77040;SDS011;65974;42.664;23.264;2023-03-01T07:41:11;4.80;;;2.50;;
77040;SDS011;65974;42.664;23.264;2023-03-01T07:43:36;2.67;;;1.65;;
77040;SDS011;65974;42.664;23.264;2023-03-01T07:46:02;4.40;;;2.58;;
77040;SDS011;65974;42.664;23.264;2023-03-01T07:48:29;2.67;;;2.22;;
77040;SDS011;65974;42.664;23.264;2023-03-01T07:50:58;5.75;;;3.00;;
77040;SDS011;65974;42.664;23.264;2023-03-01T07:53:28;2.95;;;2.10;;
77040;SDS011;65974;42.664;23.264;2023-03-01T07:56:03;4.38;;;2.22;;
77040;SDS011;65974;42.664;23.264;2023-03-01T07:58:28;4.50;;;3.00;;
77040;SDS011;65974;42.664;23.264;2023-03-01T08:00:53;3.53;;;2.22;;
77040;SDS011;65974;42.664;23.264;2023-03-01T08:03:19;3.50;;;2.13;;
77040;SDS011;65974;42.664;23.264;2023-03-01T08:05:44;2.92;;;2.47;;
77040;SDS011;65974;42.664;23.264;2023-03-01T08:08:09;4.03;;;2.70;;
77040;SDS011;65974;42.664;23.264;2023-03-01T08:10:35;3.90;;;1.90;;
77040;SDS011;65974;42.664;23.264;2023-03-01T08:13:01;5.63;;;2.30;;
77040;SDS011;65974;42.664;23.264;2023-03-01T08:15:27;3.90;;;2.13;;
77040;SDS011;65974;42.664;23.264;2023-03-01T08:17:52;3.78;;;1.90;;
77040;SDS011;65974;42.664;23.264;2023-03-01T08:20:17;6.47;;;3.17;;
77040;SDS011;65974;42.664;23.264;2023-03-01T08:22:43;4.45;;;2.42;;
77040;SDS011;65974;42.664;23.264;2023-03-01T08:25:08;4.45;;;2.92;;
77040;SDS011;65974;42.664;23.264;2023-03-01T08:27:34;3.72;;;2.75;;
77040;SDS011;65974;42.664;23.264;2023-03-01T08:29:59;5.05;;;2.63;;
77040;SDS011;65974;42.664;23.264;2023-03-01T08:32:25;5.13;;;3.67;;
77040;SDS011;65974;42.664;23.264;2023-03-01T08:34:50;4.13;;;3.35;;
77040;SDS011;65974;42.664;23.264;2023-03-01T08:37:16;5.90;;;4.28;;
77040;SDS011;65974;42.664;23.264;2023-03-01T08:39:41;5.32;;;3.60;;
77040;SDS011;65974;42.664;23.264;2023-03-01T08:42:06;4.35;;;3.53;;
77040;SDS011;65974;42.664;23.264;2023-03-01T08:44:32;7.65;;;3.60;;
77040;SDS011;65974;42.664;23.264;2023-03-01T08:46:58;6.80;;;3.17;;
77040;SDS011;65974;42.664;23.264;2023-03-01T08:49:25;4.90;;;3.53;;
77040;SDS011;65974;42.664;23.264;2023-03-01T08:51:50;5.00;;;2.78;;
77040;SDS011;65974;42.664;23.264;2023-03-01T08:54:17;3.60;;;2.45;;
77040;SDS011;65974;42.664;23.264;2023-03-01T08:56:46;4.78;;;2.47;;
77040;SDS011;65974;42.664;23.264;2023-03-01T08:59:16;4.80;;;2.53;;
77040;SDS011;65974;42.664;23.264;2023-03-01T09:01:42;3.13;;;2.42;;
77040;SDS011;65974;42.664;23.264;2023-03-01T09:04:11;3.17;;;2.08;;
77040;SDS011;65974;42.664;23.264;2023-03-01T09:06:37;3.13;;;2.38;;
77040;SDS011;65974;42.664;23.264;2023-03-01T09:09:03;3.78;;;2.28;;
77040;SDS011;65974;42.664;23.264;2023-03-01T09:11:32;5.50;;;3.00;;
77040;SDS011;65974;42.664;23.264;2023-03-01T09:13:58;2.50;;;2.10;;
77040;SDS011;65974;42.664;23.264;2023-03-01T09:16:23;3.70;;;2.08;;
77040;SDS011;65974;42.664;23.264;2023-03-01T09:18:52;5.55;;;2.50;;
77040;SDS011;65974;42.664;23.264;2023-03-01T09:21:20;3.60;;;2.58;;
77040;SDS011;65974;42.664;23.264;2023-03-01T09:26:17;4.32;;;2.92;;
77040;SDS011;65974;42.664;23.264;2023-03-01T09:28:46;3.30;;;2.13;;
77040;SDS011;65974;42.664;23.264;2023-03-01T09:31:12;6.45;;;2.78;;
77040;SDS011;65974;42.664;23.264;2023-03-01T09:33:39;8.20;;;3.10;;
77040;SDS011;65974;42.664;23.264;2023-03-01T09:36:07;6.30;;;2.97;;
77040;SDS011;65974;42.664;23.264;2023-03-01T09:38:35;4.45;;;2.65;;
77040;SDS011;65974;42.664;23.264;2023-03-01T09:41:01;4.88;;;1.90;;
77040;SDS011;65974;42.664;23.264;2023-03-01T09:46:13;4.85;;;2.97;;
77040;SDS011;65974;42.664;23.264;2023-03-01T09:48:52;3.90;;;2.72;;
77040;SDS011;65974;42.664;23.264;2023-03-01T09:51:29;2.88;;;1.45;;
77040;SDS011;65974;42.664;23.264;2023-03-01T09:53:57;7.72;;;2.72;;
77040;SDS011;65974;42.664;23.264;2023-03-01T09:59:29;4.55;;;2.47;;
77040;SDS011;65974;42.664;23.264;2023-03-01T10:04:54;4.82;;;2.85;;
77040;SDS011;65974;42.664;23.264;2023-03-01T10:10:25;3.38;;;2.25;;
77040;SDS011;65974;42.664;23.264;2023-03-01T10:13:04;3.72;;;2.05;;
77040;SDS011;65974;42.664;23.264;2023-03-01T10:15:50;6.18;;;2.58;;
77040;SDS011;65974;42.664;23.264;2023-03-01T10:18:29;3.50;;;1.80;;
77040;SDS011;65974;42.664;23.264;2023-03-01T10:20:59;3.88;;;2.45;;
77040;SDS011;65974;42.664;23.264;2023-03-01T10:23:27;4.10;;;2.25;;
77040;SDS011;65974;42.664;23.264;2023-03-01T10:31:36;3.65;;;2.40;;
77040;SDS011;65974;42.664;23.264;2023-03-01T10:36:48;3.40;;;2.30;;
77040;SDS011;65974;42.664;23.264;2023-03-01T10:39:19;6.38;;;2.67;;
77040;SDS011;65974;42.664;23.264;2023-03-01T10:42:05;4.72;;;2.55;;
77040;SDS011;65974;42.664;23.264;2023-03-01T10:44:48;4.53;;;2.40;;
77040;SDS011;65974;42.664;23.264;2023-03-01T10:47:24;5.40;;;2.88;;
77040;SDS011;65974;42.664;23.264;2023-03-01T10:50:01;7.10;;;2.75;;
77040;SDS011;65974;42.664;23.264;2023-03-01T10:54:55;4.85;;;2.42;;
77040;SDS011;65974;42.664;23.264;2023-03-01T10:57:33;5.32;;;2.28;;
77040;SDS011;65974;42.664;23.264;2023-03-01T11:02:46;4.65;;;2.42;;
77040;SDS011;65974;42.664;23.264;2023-03-01T11:05:18;3.55;;;2.20;;
77040;SDS011;65974;42.664;23.264;2023-03-01T11:07:49;3.67;;;2.50;;
77040;SDS011;65974;42.664;23.264;2023-03-01T11:10:23;3.58;;;2.58;;
77040;SDS011;65974;42.664;23.264;2023-03-01T11:12:52;7.78;;;3.22;;
77040;SDS011;65974;42.664;23.264;2023-03-01T11:15:20;4.53;;;3.25;;
77040;SDS011;65974;42.664;23.264;2023-03-01T11:17:47;5.00;;;3.05;;
77040;SDS011;65974;42.664;23.264;2023-03-01T11:22:49;6.95;;;3.15;;
77040;SDS011;65974;42.664;23.264;2023-03-01T11:25:19;4.30;;;2.83;;
77040;SDS011;65974;42.664;23.264;2023-03-01T11:27:51;5.47;;;3.00;;
77040;SDS011;65974;42.664;23.264;2023-03-01T11:30:26;3.70;;;2.15;;
77040;SDS011;65974;42.664;23.264;2023-03-01T11:35:42;6.28;;;4.70;;
77040;SDS011;65974;42.664;23.264;2023-03-01T11:38:18;7.28;;;3.00;;
77040;SDS011;65974;42.664;23.264;2023-03-01T11:40:51;6.55;;;3.50;;
77040;SDS011;65974;42.664;23.264;2023-03-01T11:43:28;4.38;;;3.00;;
77040;SDS011;65974;42.664;23.264;2023-03-01T12:05:03;4.13;;;3.28;;
77040;SDS011;65974;42.664;23.264;2023-03-01T12:07:41;6.65;;;4.05;;
77040;SDS011;65974;42.664;23.264;2023-03-01T12:31:47;7.07;;;4.53;;
77040;SDS011;65974;42.664;23.264;2023-03-01T12:40:15;4.88;;;2.80;;
77040;SDS011;65974;42.664;23.264;2023-03-01T12:51:14;5.57;;;3.22;;
77040;SDS011;65974;42.664;23.264;2023-03-01T12:53:47;5.15;;;3.67;;
77040;SDS011;65974;42.664;23.264;2023-03-01T12:56:19;4.22;;;3.38;;
77040;SDS011;65974;42.664;23.264;2023-03-01T12:59:06;5.18;;;2.50;;
77040;SDS011;65974;42.664;23.264;2023-03-01T13:04:56;16.00;;;10.23;;
77040;SDS011;65974;42.664;23.264;2023-03-01T13:07:28;6.57;;;4.03;;
77040;SDS011;65974;42.664;23.264;2023-03-01T13:12:53;3.13;;;1.83;;
77040;SDS011;65974;42.664;23.264;2023-03-01T13:17:48;10.48;;;4.20;;
77040;SDS011;65974;42.664;23.264;2023-03-01T13:20:15;7.55;;;5.18;;
77040;SDS011;65974;42.664;23.264;2023-03-01T13:22:43;4.78;;;3.50;;
77040;SDS011;65974;42.664;23.264;2023-03-01T13:25:16;8.23;;;6.05;;
77040;SDS011;65974;42.664;23.264;2023-03-01T13:27:43;8.48;;;3.15;;
77040;SDS011;65974;42.664;23.264;2023-03-01T13:30:38;6.90;;;4.03;;
77040;SDS011;65974;42.664;23.264;2023-03-01T13:35:56;4.80;;;3.30;;
77040;SDS011;65974;42.664;23.264;2023-03-01T13:41:12;12.55;;;5.30;;
77040;SDS011;65974;42.664;23.264;2023-03-01T13:43:40;6.28;;;4.15;;
77040;SDS011;65974;42.664;23.264;2023-03-01T13:46:12;5.80;;;3.58;;
77040;SDS011;65974;42.664;23.264;2023-03-01T13:48:44;5.57;;;3.67;;
77040;SDS011;65974;42.664;23.264;2023-03-01T13:51:12;7.43;;;3.95;;
77040;SDS011;65974;42.664;23.264;2023-03-01T13:53:43;5.20;;;3.38;;
77040;SDS011;65974;42.664;23.264;2023-03-01T13:56:19;7.70;;;4.75;;
77040;SDS011;65974;42.664;23.264;2023-03-01T13:59:18;7.90;;;4.82;;
77040;SDS011;65974;42.664;23.264;2023-03-01T14:01:52;10.23;;;3.40;;
77040;SDS011;65974;42.664;23.264;2023-03-01T14:04:23;4.07;;;2.72;;
77040;SDS011;65974;42.664;23.264;2023-03-01T14:06:52;5.95;;;3.30;;
77040;SDS011;65974;42.664;23.264;2023-03-01T14:10:00;7.00;;;2.85;;
77040;SDS011;65974;42.664;23.264;2023-03-01T14:12:49;5.70;;;3.53;;
77040;SDS011;65974;42.664;23.264;2023-03-01T14:15:34;7.13;;;4.05;;
77040;SDS011;65974;42.664;23.264;2023-03-01T14:20:39;4.75;;;2.67;;
77040;SDS011;65974;42.664;23.264;2023-03-01T14:23:14;9.68;;;5.13;;
77040;SDS011;65974;42.664;23.264;2023-03-01T14:25:55;4.93;;;2.88;;
77040;SDS011;65974;42.664;23.264;2023-03-01T14:28:27;6.10;;;3.85;;
77040;SDS011;65974;42.664;23.264;2023-03-01T14:30:55;7.97;;;3.70;;
77040;SDS011;65974;42.664;23.264;2023-03-01T14:33:29;6.90;;;3.67;;
77040;SDS011;65974;42.664;23.264;2023-03-01T14:36:02;7.80;;;3.88;;
77040;SDS011;65974;42.664;23.264;2023-03-01T14:41:00;11.02;;;5.90;;
77040;SDS011;65974;42.664;23.264;2023-03-01T14:43:29;8.63;;;4.45;;
77040;SDS011;65974;42.664;23.264;2023-03-01T14:45:55;7.97;;;4.00;;
77040;SDS011;65974;42.664;23.264;2023-03-01T14:48:21;19.30;;;6.78;;
77040;SDS011;65974;42.664;23.264;2023-03-01T14:50:48;9.57;;;4.55;;
77040;SDS011;65974;42.664;23.264;2023-03-01T14:53:19;8.40;;;4.78;;
77040;SDS011;65974;42.664;23.264;2023-03-01T14:55:54;11.57;;;5.93;;
77040;SDS011;65974;42.664;23.264;2023-03-01T14:58:22;5.45;;;2.42;;
77040;SDS011;65974;42.664;23.264;2023-03-01T15:00:53;5.93;;;3.63;;
77040;SDS011;65974;42.664;23.264;2023-03-01T15:03:24;9.02;;;4.80;;
77040;SDS011;65974;42.664;23.264;2023-03-01T15:05:50;7.47;;;4.03;;
77040;SDS011;65974;42.664;23.264;2023-03-01T15:08:21;8.20;;;4.07;;
77040;SDS011;65974;42.664;23.264;2023-03-01T15:10:57;8.95;;;3.75;;
77040;SDS011;65974;42.664;23.264;2023-03-01T15:13:38;5.70;;;3.40;;
77040;SDS011;65974;42.664;23.264;2023-03-01T15:18:34;11.60;;;4.85;;
77040;SDS011;65974;42.664;23.264;2023-03-01T15:21:35;6.15;;;3.40;;
77040;SDS011;65974;42.664;23.264;2023-03-01T15:23:57;10.00;;;5.70;;
77040;SDS011;65974;42.664;23.264;2023-03-01T15:26:29;10.30;;;4.93;;
77040;SDS011;65974;42.664;23.264;2023-03-01T15:28:57;11.68;;;5.85;;
77040;SDS011;65974;42.664;23.264;2023-03-01T15:31:25;16.63;;;8.98;;
77040;SDS011;65974;42.664;23.264;2023-03-01T15:34:08;14.63;;;5.90;;
77040;SDS011;65974;42.664;23.264;2023-03-01T15:36:45;12.45;;;6.57;;
77040;SDS011;65974;42.664;23.264;2023-03-01T15:44:39;8.30;;;5.15;;
77040;SDS011;65974;42.664;23.264;2023-03-01T15:49:54;9.93;;;5.95;;
77040;SDS011;65974;42.664;23.264;2023-03-01T15:52:28;6.68;;;4.38;;
77040;SDS011;65974;42.664;23.264;2023-03-01T15:55:02;6.70;;;3.80;;
77040;SDS011;65974;42.664;23.264;2023-03-01T15:57:29;9.30;;;5.20;;
77040;SDS011;65974;42.664;23.264;2023-03-01T15:59:54;13.65;;;7.72;;
77040;SDS011;65974;42.664;23.264;2023-03-01T16:02:20;18.55;;;8.25;;
77040;SDS011;65974;42.664;23.264;2023-03-01T16:04:48;12.45;;;7.90;;
77040;SDS011;65974;42.664;23.264;2023-03-01T16:07:16;8.07;;;5.25;;
77040;SDS011;65974;42.664;23.264;2023-03-01T16:09:42;20.42;;;9.48;;
77040;SDS011;65974;42.664;23.264;2023-03-01T16:12:17;22.02;;;8.30;;
77040;SDS011;65974;42.664;23.264;2023-03-01T16:14:45;13.60;;;6.75;;
77040;SDS011;65974;42.664;23.264;2023-03-01T16:17:10;18.90;;;6.07;;
77040;SDS011;65974;42.664;23.264;2023-03-01T16:19:37;10.73;;;5.82;;
77040;SDS011;65974;42.664;23.264;2023-03-01T16:22:03;9.90;;;4.60;;
77040;SDS011;65974;42.664;23.264;2023-03-01T16:24:29;18.80;;;6.72;;
77040;SDS011;65974;42.664;23.264;2023-03-01T16:26:55;10.95;;;4.97;;
77040;SDS011;65974;42.664;23.264;2023-03-01T16:29:20;17.70;;;7.03;;
77040;SDS011;65974;42.664;23.264;2023-03-01T16:31:45;25.45;;;9.15;;
77040;SDS011;65974;42.664;23.264;2023-03-01T16:34:11;14.90;;;6.55;;
77040;SDS011;65974;42.664;23.264;2023-03-01T16:36:37;15.00;;;6.15;;
77040;SDS011;65974;42.664;23.264;2023-03-01T16:39:02;14.02;;;6.97;;
77040;SDS011;65974;42.664;23.264;2023-03-01T16:41:28;15.52;;;5.95;;
77040;SDS011;65974;42.664;23.264;2023-03-01T16:43:53;10.88;;;5.60;;
77040;SDS011;65974;42.664;23.264;2023-03-01T16:46:20;13.85;;;7.63;;
77040;SDS011;65974;42.664;23.264;2023-03-01T16:48:50;6.60;;;4.22;;
77040;SDS011;65974;42.664;23.264;2023-03-01T16:51:17;7.53;;;4.45;;
77040;SDS011;65974;42.664;23.264;2023-03-01T16:53:43;9.27;;;4.88;;